createdAt,value
2022-12-22T00:04:40.272Z,0.80
2022-12-22T00:09:50.744Z,0.95
2022-12-22T00:15:02.722Z,1.48
2022-12-22T00:20:18.358Z,0.52
2022-12-22T00:25:32.785Z,0.93
2022-12-22T00:30:43.876Z,0.60
2022-12-22T00:35:54.072Z,0.80
2022-12-22T00:41:04.519Z,0.82
2022-12-22T00:46:15.410Z,0.40
2022-12-22T00:51:26.684Z,0.70
2022-12-22T00:56:37.384Z,0.70
2022-12-22T01:01:48.086Z,0.52
2022-12-22T01:06:58.397Z,0.50
2022-12-22T01:12:08.610Z,0.50
2022-12-22T01:17:19.329Z,0.50
2022-12-22T01:22:31.466Z,0.60
2022-12-22T01:27:42.099Z,0.95
2022-12-22T01:32:52.273Z,0.80
2022-12-22T01:38:02.723Z,1.33
2022-12-22T01:43:13.103Z,0.57
2022-12-22T01:48:23.639Z,0.30
2022-12-22T01:53:41.622Z,0.50
2022-12-22T01:58:56.092Z,1.00
2022-12-22T02:04:06.409Z,0.20
2022-12-22T02:09:34.611Z,0.40
2022-12-22T02:14:56.301Z,0.32
2022-12-22T02:20:15.652Z,0.35
2022-12-22T02:25:36.270Z,0.80
2022-12-22T02:30:47.208Z,0.50
2022-12-22T02:36:07.287Z,0.38
2022-12-22T02:41:23.360Z,0.30
2022-12-22T02:46:39.366Z,0.47
2022-12-22T02:51:54.845Z,0.30
2022-12-22T02:57:05.184Z,0.28
2022-12-22T03:02:16.104Z,0.20
2022-12-22T03:07:26.843Z,0.22
2022-12-22T03:12:36.888Z,0.20
2022-12-22T03:17:47.287Z,0.82
2022-12-22T03:22:57.850Z,0.60
2022-12-22T03:27:49.530Z,0.32
2022-12-22T03:32:41.279Z,0.32
2022-12-22T03:37:32.960Z,0.40
2022-12-22T03:42:43.531Z,0.60
2022-12-22T03:47:35.208Z,0.40
2022-12-22T03:52:26.873Z,0.50
2022-12-22T03:57:18.481Z,0.50
2022-12-22T04:02:10.330Z,0.40
2022-12-22T04:07:02.104Z,0.57
2022-12-22T04:12:12.278Z,0.40
2022-12-22T04:17:05.668Z,0.95
2022-12-22T04:21:57.699Z,0.30
2022-12-22T04:26:50.385Z,0.40
2022-12-22T04:31:42.175Z,0.40
2022-12-22T04:36:33.888Z,0.40
2022-12-22T04:41:26.795Z,0.50
2022-12-22T04:46:18.509Z,0.47
2022-12-22T04:51:10.404Z,0.60
2022-12-22T04:56:05.501Z,0.63
2022-12-22T05:00:57.563Z,0.63
2022-12-22T05:05:49.343Z,0.60
2022-12-22T05:10:41.231Z,0.60
2022-12-22T05:15:36.047Z,1.45
2022-12-22T05:20:28.782Z,0.70
2022-12-22T05:25:21.333Z,1.00
2022-12-22T05:30:14.213Z,1.20
2022-12-22T05:35:06.892Z,0.70
2022-12-22T05:39:58.452Z,0.70
2022-12-22T05:44:50.137Z,1.30
2022-12-22T05:49:41.834Z,1.30
2022-12-22T05:54:33.422Z,1.02
2022-12-22T05:59:25.114Z,0.93
2022-12-22T06:04:16.822Z,1.55
2022-12-22T06:09:08.494Z,1.10
2022-12-22T06:14:00.134Z,1.25
2022-12-22T06:18:51.839Z,1.75
2022-12-22T06:23:43.589Z,1.58
2022-12-22T06:28:35.272Z,1.90
2022-12-22T06:33:27.051Z,1.60
2022-12-22T06:38:18.626Z,2.10
2022-12-22T06:43:10.742Z,1.55
2022-12-22T06:48:03.010Z,1.70
2022-12-22T06:52:54.747Z,2.15
2022-12-22T06:57:46.433Z,2.28
2022-12-22T07:02:38.279Z,1.77
2022-12-22T07:07:30.058Z,3.65
2022-12-22T07:12:22.642Z,1.60
2022-12-22T07:17:14.311Z,1.60
2022-12-22T07:22:05.971Z,1.58
2022-12-22T07:26:57.665Z,1.48
2022-12-22T07:31:49.455Z,1.75
2022-12-22T07:36:41.145Z,1.70
2022-12-22T07:41:51.558Z,1.52
2022-12-22T07:46:43.266Z,1.48
2022-12-22T07:51:37.358Z,1.90
2022-12-22T07:56:29.014Z,2.22
2022-12-22T08:01:20.586Z,2.80
2022-12-22T08:06:12.505Z,2.17
2022-12-22T08:11:05.080Z,2.55
2022-12-22T08:16:02.144Z,1.52
2022-12-22T08:20:53.751Z,1.60
2022-12-22T08:25:48.076Z,1.75
2022-12-22T08:30:39.766Z,2.55
2022-12-22T08:35:31.492Z,1.98
2022-12-22T08:40:26.580Z,1.40
2022-12-22T08:45:18.574Z,2.40
2022-12-22T08:50:10.690Z,2.45
2022-12-22T08:55:02.273Z,3.22
2022-12-22T08:59:53.962Z,3.00
2022-12-22T09:04:45.628Z,3.65
2022-12-22T09:09:37.340Z,3.35
2022-12-22T09:14:29.500Z,2.10
2022-12-22T09:19:21.493Z,3.33
2022-12-22T09:24:13.159Z,2.80
2022-12-22T09:29:05.092Z,2.13
2022-12-22T09:33:57.639Z,1.98
2022-12-22T09:38:49.773Z,1.75
2022-12-22T09:43:41.883Z,1.77
2022-12-22T09:48:37.838Z,2.13
2022-12-22T09:53:29.537Z,1.70
2022-12-22T09:58:29.745Z,1.85
2022-12-22T10:03:21.968Z,1.40
2022-12-22T10:08:17.006Z,1.58
2022-12-22T10:13:17.016Z,1.45
2022-12-22T10:18:21.339Z,2.10
2022-12-22T10:23:24.516Z,3.53
2022-12-22T10:28:22.901Z,5.95
2022-12-22T10:33:17.612Z,4.40
2022-12-22T10:38:26.264Z,3.50
2022-12-22T10:43:28.174Z,4.05
2022-12-22T10:48:29.003Z,6.22
2022-12-22T10:53:20.663Z,5.10
2022-12-22T10:58:21.902Z,7.80
2022-12-22T11:03:24.123Z,7.00
2022-12-22T11:08:21.125Z,7.60
2022-12-22T11:13:35.716Z,6.78
2022-12-22T11:19:07.647Z,7.03
2022-12-22T11:24:24.170Z,6.50
2022-12-22T11:29:27.783Z,4.88
2022-12-22T11:34:37.909Z,5.75
2022-12-22T11:40:10.653Z,5.40
2022-12-22T11:45:22.788Z,7.35
2022-12-22T11:50:58.491Z,8.35
2022-12-22T11:56:01.209Z,7.22
2022-12-22T12:01:26.368Z,8.23
2022-12-22T12:06:28.843Z,7.22
2022-12-22T12:11:35.781Z,9.80
2022-12-22T12:16:42.804Z,7.95
2022-12-22T12:21:56.628Z,6.07
2022-12-22T12:26:52.823Z,6.72
2022-12-22T12:32:12.393Z,9.43
2022-12-22T12:37:47.230Z,6.80
2022-12-22T12:42:45.567Z,7.03
2022-12-22T12:47:37.381Z,6.57
2022-12-22T12:52:41.075Z,5.85
2022-12-22T12:57:53.183Z,5.63
2022-12-22T13:02:57.749Z,4.90
2022-12-22T13:08:17.494Z,4.20
2022-12-22T13:13:34.924Z,2.95
2022-12-22T13:18:29.440Z,2.60
2022-12-22T13:23:21.928Z,2.22
2022-12-22T13:28:19.304Z,3.35
2022-12-22T13:33:16.048Z,2.93
2022-12-22T13:38:32.135Z,3.08
2022-12-22T13:43:24.764Z,2.95
2022-12-22T13:48:21.171Z,3.05
2022-12-22T13:53:49.486Z,2.85
2022-12-22T13:58:37.013Z,2.90
2022-12-22T14:03:58.340Z,3.30
2022-12-22T14:08:40.369Z,4.03
2022-12-22T14:13:32.920Z,4.32
2022-12-22T14:18:26.464Z,4.72
2022-12-22T14:23:38.383Z,5.22
2022-12-22T14:28:40.123Z,7.10
2022-12-22T14:33:33.927Z,5.95
2022-12-22T14:38:26.751Z,5.18
2022-12-22T14:43:18.520Z,6.40
2022-12-22T14:48:17.069Z,5.75
2022-12-22T14:53:13.241Z,6.07
2022-12-22T14:58:13.563Z,4.60
2022-12-22T15:03:37.964Z,6.60
2022-12-22T15:08:41.231Z,7.28
2022-12-22T15:13:32.844Z,7.10
2022-12-22T15:18:27.176Z,6.00
2022-12-22T15:23:18.971Z,8.68
2022-12-22T15:28:10.770Z,7.82
2022-12-22T15:33:02.843Z,17.00
2022-12-22T15:37:55.246Z,17.90
2022-12-22T15:42:47.644Z,17.90
2022-12-22T15:47:41.421Z,12.25
2022-12-22T15:52:33.179Z,11.25
2022-12-22T15:57:25.092Z,10.25
2022-12-22T16:02:16.885Z,7.45
2022-12-22T16:07:12.517Z,8.57
2022-12-22T16:12:12.751Z,11.10
2022-12-22T16:17:04.430Z,20.33
2022-12-22T16:21:56.162Z,11.50
2022-12-22T16:26:47.882Z,12.50
2022-12-22T16:31:39.584Z,9.77
2022-12-22T16:36:31.316Z,10.65
2022-12-22T16:41:25.019Z,11.30
2022-12-22T16:46:21.519Z,7.88
2022-12-22T16:51:21.745Z,9.05
2022-12-22T16:56:20.632Z,7.38
2022-12-22T17:01:41.430Z,6.13
2022-12-22T17:06:34.152Z,3.47
2022-12-22T17:11:29.399Z,5.80
2022-12-22T17:16:23.323Z,6.50
2022-12-22T17:21:18.671Z,6.03
2022-12-22T17:26:14.043Z,4.70
2022-12-22T17:31:06.230Z,6.85
2022-12-22T17:36:00.178Z,7.75
2022-12-22T17:40:52.116Z,7.65
2022-12-22T17:45:46.018Z,6.20
2022-12-22T17:50:38.704Z,5.00
2022-12-22T18:00:42.849Z,5.68
2022-12-22T18:05:42.197Z,7.00
2022-12-22T18:10:41.955Z,11.10
2022-12-22T18:15:33.622Z,6.88
2022-12-22T18:20:27.596Z,5.50
2022-12-22T18:25:22.103Z,6.60
2022-12-22T18:30:19.927Z,8.65
2022-12-22T18:35:11.587Z,7.72
2022-12-22T18:40:04.500Z,5.05
2022-12-22T18:44:56.128Z,4.68
2022-12-22T18:49:47.887Z,5.32
2022-12-22T18:54:40.119Z,9.85
2022-12-22T18:59:32.941Z,7.13
2022-12-22T19:04:24.588Z,8.98
2022-12-22T19:09:16.352Z,9.13
2022-12-22T19:14:22.117Z,9.55
2022-12-22T19:19:20.983Z,12.75
2022-12-22T19:24:12.751Z,12.18
2022-12-22T19:29:04.974Z,11.15
2022-12-22T19:33:59.327Z,10.85
2022-12-22T19:38:52.906Z,12.80
2022-12-22T19:43:46.544Z,15.70
2022-12-22T19:48:38.255Z,20.40
2022-12-22T19:53:29.903Z,14.70
2022-12-22T19:58:30.457Z,15.70
2022-12-22T20:03:26.489Z,12.40
2022-12-22T20:08:18.427Z,13.25
2022-12-22T20:13:19.048Z,11.25
2022-12-22T20:18:22.743Z,9.95
2022-12-22T20:23:18.954Z,12.32
2022-12-22T20:28:19.905Z,13.10
2022-12-22T20:33:12.306Z,11.10
2022-12-22T20:38:15.826Z,12.00
2022-12-22T20:43:12.976Z,12.52
2022-12-22T20:48:04.875Z,12.15
2022-12-22T20:52:57.337Z,12.95
2022-12-22T20:57:49.941Z,12.73
2022-12-22T21:02:41.683Z,14.57
2022-12-22T21:07:33.471Z,12.73
2022-12-22T21:12:25.129Z,14.60
2022-12-22T21:17:18.172Z,13.75
2022-12-22T21:22:11.546Z,15.52
2022-12-22T21:27:03.972Z,14.25
2022-12-22T21:31:55.740Z,20.17
2022-12-22T21:36:50.703Z,14.65
2022-12-22T21:42:00.872Z,18.13
2022-12-22T21:46:52.971Z,15.27
2022-12-22T21:51:44.752Z,15.50
2022-12-22T21:56:36.382Z,16.98
2022-12-22T22:01:28.083Z,16.15
2022-12-22T22:06:19.776Z,17.85
2022-12-22T22:11:20.050Z,15.25
2022-12-22T22:16:11.828Z,15.50
2022-12-22T22:21:03.785Z,16.48
2022-12-22T22:25:59.240Z,15.40
2022-12-22T22:30:51.018Z,14.50
2022-12-22T22:35:42.649Z,16.48
2022-12-22T22:40:34.321Z,15.90
2022-12-22T22:45:26.022Z,14.20
2022-12-22T22:50:19.078Z,14.50
2022-12-22T22:55:12.705Z,15.32
2022-12-22T23:00:09.952Z,22.08
2022-12-22T23:05:01.946Z,21.23
2022-12-22T23:09:53.726Z,21.13
2022-12-22T23:14:45.355Z,21.08
2022-12-22T23:19:37.076Z,17.77
2022-12-22T23:24:28.910Z,19.40
2022-12-22T23:29:20.710Z,20.42
2022-12-22T23:34:12.853Z,19.52
2022-12-22T23:39:04.751Z,17.80
2022-12-22T23:43:56.569Z,18.52
2022-12-22T23:48:56.987Z,16.70
2022-12-22T23:53:48.803Z,17.60
2022-12-22T23:58:40.678Z,18.17
